Time;durP1;ratioP1;P1;durP2;ratioP2;P2;SDS_P1;SDS_P2;PMS_P1;PMS_P2;Temp;Humidity;BMP_temperature;BMP_pressure;BME280_temperature;BME280_humidity;BME280_pressure;Samples;Min_cycle;Max_cycle;Signal;HPM_P1;HPM_P2
2022/09/21 00:01:09;;;;;;;10.93;6.20;;;7.50;99.90;;;;;;4936448;29;20039;-80
2022/09/21 00:03:36;;;;;;;9.52;5.25;;;7.40;99.90;;;;;;4936166;29;20040;-80
2022/09/21 00:06:03;;;;;;;9.27;5.38;;;7.50;99.90;;;;;;4936318;29;20047;-83
2022/09/21 00:08:29;;;;;;;9.07;5.13;;;7.40;99.90;;;;;;4936600;29;20114;-79
2022/09/21 00:10:54;;;;;;;7.47;4.93;;;7.40;99.90;;;;;;4936240;29;20083;-78
2022/09/21 00:13:20;;;;;;;9.18;4.75;;;7.40;99.90;;;;;;4937676;29;20050;-81
2022/09/21 00:15:46;;;;;;;8.52;4.28;;;7.40;99.90;;;;;;4940014;29;20054;-80
2022/09/21 00:18:12;;;;;;;5.13;3.22;;;7.40;99.90;;;;;;4939872;29;20051;-79
2022/09/21 00:20:42;;;;;;;5.70;3.70;;;7.40;99.90;;;;;;4939812;29;20531;-79
2022/09/21 00:23:08;;;;;;;6.60;3.30;;;7.40;99.90;;;;;;4923156;29;20043;-82
2022/09/21 00:25:34;;;;;;;8.25;2.65;;;7.40;99.90;;;;;;4939923;29;20083;-79
2022/09/21 00:28:00;;;;;;;3.92;2.45;;;7.30;99.90;;;;;;4940030;29;20086;-80
2022/09/21 00:30:27;;;;;;;6.28;3.40;;;7.30;99.90;;;;;;4923216;29;20099;-82
2022/09/21 00:32:53;;;;;;;6.22;3.30;;;7.30;99.90;;;;;;4939660;29;20043;-81
2022/09/21 00:35:19;;;;;;;6.03;3.35;;;7.30;99.90;;;;;;4939924;29;20043;-81
2022/09/21 00:37:45;;;;;;;5.47;3.65;;;7.20;99.90;;;;;;4938336;29;20526;-83
2022/09/21 00:40:11;;;;;;;4.13;2.40;;;7.20;99.90;;;;;;4939679;29;20087;-81
2022/09/21 00:42:37;;;;;;;4.47;2.60;;;7.20;99.90;;;;;;4939626;29;20051;-79
2022/09/21 00:45:04;;;;;;;7.28;2.60;;;7.20;99.90;;;;;;4939525;29;20040;-82
2022/09/21 00:47:35;;;;;;;3.25;2.13;;;7.20;99.90;;;;;;4939383;29;20078;-79
2022/09/21 00:50:06;;;;;;;4.70;2.08;;;7.20;99.90;;;;;;4939302;29;20047;-82
2022/09/21 00:52:36;;;;;;;4.88;2.03;;;7.10;99.90;;;;;;4939891;29;20052;-81
2022/09/21 00:55:17;;;;;;;4.93;2.03;;;7.10;99.90;;;;;;4939435;29;20119;-78
2022/09/21 00:57:46;;;;;;;4.13;1.88;;;7.10;99.90;;;;;;4939287;29;20428;-82
2022/09/21 01:00:13;;;;;;;3.72;1.90;;;7.10;99.90;;;;;;4938995;29;20060;-80
2022/09/21 01:02:39;;;;;;;3.58;1.73;;;7.10;99.90;;;;;;4939356;29;20157;-79
2022/09/21 01:05:06;;;;;;;2.97;1.65;;;7.10;99.90;;;;;;4939251;29;20503;-79
2022/09/21 01:07:35;;;;;;;2.47;1.75;;;7.10;99.90;;;;;;4939162;29;20126;-80
2022/09/21 01:10:08;;;;;;;3.58;1.55;;;7.10;99.90;;;;;;4939210;29;20067;-82
2022/09/21 01:12:42;;;;;;;2.70;1.60;;;7.10;99.90;;;;;;4939120;29;20175;-81
2022/09/21 01:15:17;;;;;;;4.95;1.60;;;7.00;99.90;;;;;;4939379;29;20054;-80
2022/09/21 01:18:04;;;;;;;3.55;1.63;;;7.00;99.90;;;;;;4939113;29;20055;-80
2022/09/21 01:20:36;;;;;;;2.22;1.50;;;6.90;99.90;;;;;;4938885;29;20052;-80
2022/09/21 01:23:26;;;;;;;5.65;1.65;;;6.90;99.90;;;;;;4938762;29;20066;-80
2022/09/21 01:26:06;;;;;;;3.80;1.65;;;6.90;99.90;;;;;;4938478;29;20055;-81
2022/09/21 01:29:03;;;;;;;3.22;1.48;;;6.80;99.90;;;;;;4938825;29;20079;-80
2022/09/21 01:31:37;;;;;;;3.67;1.52;;;6.70;99.90;;;;;;4937719;29;20066;-80
2022/09/21 01:34:09;;;;;;;3.33;1.60;;;6.60;99.90;;;;;;4937946;29;20087;-81
2022/09/21 01:36:36;;;;;;;3.50;1.42;;;6.50;99.90;;;;;;4938696;29;20067;-80
2022/09/21 01:39:10;;;;;;;4.32;1.85;;;6.50;99.90;;;;;;4938766;29;20496;-79
2022/09/21 01:41:37;;;;;;;3.35;1.85;;;6.50;99.90;;;;;;4938891;29;20044;-77
2022/09/21 01:44:12;;;;;;;3.88;1.60;;;6.50;99.90;;;;;;4938496;29;20046;-79
2022/09/21 01:46:38;;;;;;;3.03;1.67;;;6.50;99.90;;;;;;4938082;29;20063;-79
2022/09/21 01:49:16;;;;;;;4.63;1.60;;;6.40;99.90;;;;;;4937617;29;20373;-79
2022/09/21 01:51:57;;;;;;;3.17;1.70;;;6.40;99.90;;;;;;4938269;29;20499;-82
2022/09/21 01:54:38;;;;;;;4.20;1.83;;;6.40;99.90;;;;;;4938421;29;20047;-79
2022/09/21 01:57:11;;;;;;;3.97;1.73;;;6.30;99.90;;;;;;4938057;29;20063;-82
2022/09/21 01:59:36;;;;;;;3.00;1.73;;;6.30;99.90;;;;;;4938510;29;20130;-78
2022/09/21 02:02:12;;;;;;;3.35;1.70;;;6.30;99.90;;;;;;4938284;29;20180;-79
2022/09/21 02:04:38;;;;;;;4.32;1.70;;;6.30;99.90;;;;;;4938169;29;20402;-79
2022/09/21 02:07:05;;;;;;;3.25;1.63;;;6.30;99.90;;;;;;4938108;29;20090;-77
2022/09/21 02:09:31;;;;;;;4.22;2.08;;;6.30;99.90;;;;;;4938126;29;20056;-82
2022/09/21 02:11:57;;;;;;;2.72;1.58;;;6.20;99.90;;;;;;4937932;29;20047;-81
2022/09/21 02:14:24;;;;;;;4.68;1.70;;;6.20;99.90;;;;;;4938010;29;20090;-80
2022/09/21 02:17:01;;;;;;;2.50;1.58;;;6.20;99.90;;;;;;4937814;29;20083;-82
2022/09/21 02:20:01;;;;;;;3.05;1.90;;;6.20;99.90;;;;;;4937837;29;20051;-79
2022/09/21 02:22:39;;;;;;;4.03;1.85;;;6.20;99.90;;;;;;4933492;29;20052;-80
2022/09/21 02:25:13;;;;;;;6.18;1.60;;;6.20;99.90;;;;;;4936959;29;20052;-82
2022/09/21 02:27:55;;;;;;;2.15;1.50;;;6.10;99.90;;;;;;4937734;29;20051;-79
2022/09/21 02:30:26;;;;;;;4.38;1.75;;;6.20;99.90;;;;;;4938120;29;20051;-83
2022/09/21 02:33:18;;;;;;;5.07;1.80;;;6.10;99.90;;;;;;4938018;29;20048;-83
2022/09/21 02:35:47;;;;;;;4.68;2.20;;;6.10;99.90;;;;;;4935920;29;20503;-80
2022/09/21 02:38:33;;;;;;;5.00;1.75;;;6.00;99.90;;;;;;4937238;29;20058;-79
2022/09/21 02:41:05;;;;;;;5.13;1.63;;;6.00;99.90;;;;;;4938060;29;20079;-82
2022/09/21 02:44:03;;;;;;;3.33;1.80;;;6.00;99.90;;;;;;4937628;29;20389;-80
2022/09/21 02:46:53;;;;;;;2.55;1.70;;;5.90;99.90;;;;;;4935242;29;20052;-79
2022/09/21 02:49:25;;;;;;;2.63;1.48;;;5.90;99.90;;;;;;4936597;29;20043;-80
2022/09/21 02:51:57;;;;;;;2.67;1.85;;;5.90;99.90;;;;;;4937973;29;20043;-82
2022/09/21 02:54:28;;;;;;;3.10;1.60;;;5.90;99.90;;;;;;4936631;29;20119;-79
2022/09/21 02:56:55;;;;;;;2.90;1.92;;;5.90;99.90;;;;;;4936297;29;20082;-79
2022/09/21 02:59:22;;;;;;;2.78;1.73;;;5.90;99.90;;;;;;4937666;29;20055;-79
2022/09/21 03:01:49;;;;;;;4.65;1.70;;;6.00;99.90;;;;;;4937173;29;20056;-80
2022/09/21 03:04:15;;;;;;;4.93;1.90;;;6.00;99.90;;;;;;4937068;29;20091;-77
2022/09/21 03:06:41;;;;;;;8.13;2.00;;;5.80;99.90;;;;;;4937074;29;20444;-81
2022/09/21 03:09:07;;;;;;;4.68;1.92;;;5.80;99.90;;;;;;4936989;29;20126;-80
2022/09/21 03:11:34;;;;;;;5.20;1.77;;;6.40;99.90;;;;;;4936900;29;20411;-81
2022/09/21 03:14:07;;;;;;;3.83;2.03;;;5.80;99.90;;;;;;4937003;29;20087;-80
2022/09/21 03:16:33;;;;;;;4.50;1.70;;;5.70;99.90;;;;;;4936916;29;20055;-78
2022/09/21 03:18:59;;;;;;;3.22;1.75;;;5.70;99.90;;;;;;4935747;29;20056;-80
2022/09/21 03:21:25;;;;;;;5.82;2.17;;;5.70;99.90;;;;;;4935633;29;20400;-81
2022/09/21 03:23:51;;;;;;;6.97;1.90;;;5.70;99.90;;;;;;4935758;29;20499;-79
2022/09/21 03:26:21;;;;;;;4.65;1.83;;;5.60;99.90;;;;;;4936692;29;20047;-79
2022/09/21 03:28:48;;;;;;;3.20;1.77;;;6.30;99.90;;;;;;4936690;29;20050;-80
2022/09/21 03:31:13;;;;;;;;;;;5.60;99.90;;;;;;4937059;29;20117;-80
2022/09/21 03:33:39;;;;;;;3.53;1.85;;;5.60;99.90;;;;;;4936372;29;20013;-82
2022/09/21 03:36:05;;;;;;;3.65;1.67;;;5.60;99.90;;;;;;4935462;29;20183;-80
2022/09/21 03:38:30;;;;;;;3.35;1.60;;;5.50;99.90;;;;;;4936434;29;20064;-81
2022/09/21 03:40:56;;;;;;;4.93;1.77;;;5.50;99.90;;;;;;4936534;29;20428;-82
2022/09/21 03:43:23;;;;;;;3.60;1.80;;;5.50;99.90;;;;;;4936971;29;20044;-78
2022/09/21 03:45:48;;;;;;;2.17;1.40;;;5.50;99.90;;;;;;4936569;29;20444;-80
2022/09/21 03:48:15;;;;;;;3.53;1.77;;;5.50;99.90;;;;;;4935046;29;20283;-81
2022/09/21 03:50:41;;;;;;;2.50;1.65;;;5.50;99.90;;;;;;4936453;29;20048;-80
2022/09/21 03:53:08;;;;;;;4.22;1.90;;;5.90;99.90;;;;;;4936527;29;20048;-82
2022/09/21 03:55:34;;;;;;;3.15;1.77;;;5.40;99.90;;;;;;4936374;29;20172;-82
2022/09/21 03:58:00;;;;;;;2.83;2.00;;;5.50;99.90;;;;;;4936753;29;20048;-83
2022/09/21 04:00:26;;;;;;;7.28;1.80;;;5.50;99.90;;;;;;4936396;29;20052;-81
2022/09/21 04:02:52;;;;;;;1.88;1.45;;;5.40;99.90;;;;;;4936408;29;20051;-79
2022/09/21 04:05:18;;;;;;;4.93;1.73;;;5.40;99.90;;;;;;4936292;29;20059;-83
2022/09/21 04:07:44;;;;;;;4.43;1.90;;;5.90;99.90;;;;;;4936422;29;20428;-81
2022/09/21 04:10:12;;;;;;;2.60;1.95;;;5.30;99.90;;;;;;4936280;29;20071;-82
2022/09/21 04:12:40;;;;;;;3.92;1.60;;;5.30;99.90;;;;;;4936292;29;20518;-83
2022/09/21 04:15:06;;;;;;;5.90;1.88;;;5.30;99.90;;;;;;4936215;29;20126;-81
2022/09/21 04:17:33;;;;;;;4.83;2.00;;;5.30;99.90;;;;;;4934971;29;20133;-80
2022/09/21 04:20:00;;;;;;;5.45;1.85;;;5.30;99.90;;;;;;4936206;29;20070;-79
2022/09/21 04:22:25;;;;;;;3.88;1.85;;;5.30;99.90;;;;;;4936205;29;20047;-81
2022/09/21 04:24:51;;;;;;;4.10;1.75;;;5.20;99.90;;;;;;4936110;29;20048;-82
2022/09/21 04:27:17;;;;;;;5.45;1.83;;;5.20;99.90;;;;;;4936592;29;20511;-79
2022/09/21 04:29:43;;;;;;;3.67;1.95;;;5.10;99.90;;;;;;4936133;29;20039;-81
2022/09/21 04:32:10;;;;;;;3.22;1.52;;;5.10;99.90;;;;;;4936106;29;20483;-78
2022/09/21 04:34:38;;;;;;;2.13;1.45;;;5.10;99.90;;;;;;4936113;29;20062;-81
2022/09/21 04:37:12;;;;;;;5.45;2.47;;;5.10;99.90;;;;;;4934884;29;20067;-83
2022/09/21 04:39:38;;;;;;;6.40;1.88;;;5.10;99.90;;;;;;4936530;29;20058;-79
2022/09/21 04:42:04;;;;;;;4.32;2.25;;;5.10;99.90;;;;;;4935945;29;20048;-81
2022/09/21 04:44:30;;;;;;;3.17;2.03;;;5.00;99.90;;;;;;4934845;29;20087;-80
2022/09/21 04:46:57;;;;;;;3.03;2.25;;;4.90;99.90;;;;;;4935983;29;20460;-79
2022/09/21 04:49:22;;;;;;;2.70;2.20;;;4.90;99.90;;;;;;4935963;29;20157;-81
2022/09/21 04:51:49;;;;;;;4.65;2.38;;;4.90;99.90;;;;;;4934784;29;20131;-82
2022/09/21 04:54:15;;;;;;;5.68;2.33;;;5.00;99.90;;;;;;4935896;29;20055;-80
2022/09/21 04:56:40;;;;;;;3.83;2.17;;;4.80;99.90;;;;;;4936237;29;20467;-79
2022/09/21 04:59:06;;;;;;;3.47;2.33;;;4.80;99.90;;;;;;4935291;29;20051;-84
2022/09/21 05:01:32;;;;;;;4.40;2.17;;;4.90;99.90;;;;;;4939320;29;20427;-81
2022/09/21 05:04:00;;;;;;;6.03;2.80;;;4.80;99.90;;;;;;4939348;29;20107;-78
2022/09/21 05:06:30;;;;;;;3.42;2.38;;;4.80;99.90;;;;;;4938377;29;20135;-80
2022/09/21 05:11:41;;;;;;;7.38;2.83;;;4.80;99.90;;;;;;4939568;29;20448;-82
2022/09/21 05:14:07;;;;;;;6.75;3.08;;;4.80;99.90;;;;;;4939154;29;20492;-81
2022/09/21 05:16:33;;;;;;;5.18;3.10;;;4.80;99.90;;;;;;4939048;29;20091;-84
2022/09/21 05:18:59;;;;;;;3.97;2.78;;;4.80;99.90;;;;;;4937890;29;20082;-84
2022/09/21 05:21:25;;;;;;;6.05;2.92;;;4.80;99.90;;;;;;4938981;29;20086;-82
2022/09/21 05:23:51;;;;;;;4.03;2.40;;;4.70;99.90;;;;;;4937858;29;20543;-79
2022/09/21 05:26:16;;;;;;;2.97;2.05;;;4.70;99.90;;;;;;4939136;29;20074;-81
2022/09/21 05:28:42;;;;;;;3.85;2.42;;;4.60;99.90;;;;;;4937659;29;20040;-79
2022/09/21 05:31:34;;;;;;;4.65;1.90;;;4.60;99.90;;;;;;4937508;29;20550;-80
2022/09/21 05:34:14;;;;;;;3.25;2.17;;;4.60;99.90;;;;;;4939344;29;20052;-83
2022/09/21 05:36:52;;;;;;;3.72;2.10;;;4.60;99.90;;;;;;4938636;29;20050;-80
2022/09/21 05:39:18;;;;;;;5.45;2.17;;;4.60;99.90;;;;;;4938741;29;20056;-80
2022/09/21 05:41:44;;;;;;;4.07;2.00;;;4.60;99.90;;;;;;4938459;29;20044;-83
2022/09/21 05:44:13;;;;;;;8.93;2.22;;;4.70;99.90;;;;;;4937522;29;20052;-82
2022/09/21 05:47:06;;;;;;;5.78;2.30;;;4.70;99.90;;;;;;4937327;29;20044;-81
2022/09/21 05:49:48;;;;;;;4.18;2.53;;;4.70;99.90;;;;;;4938727;29;20053;-80
2022/09/21 05:52:17;;;;;;;4.95;2.30;;;4.70;99.90;;;;;;4938374;29;20044;-82
2022/09/21 05:54:58;;;;;;;3.20;2.10;;;4.70;99.90;;;;;;4938259;29;20051;-81
2022/09/21 05:57:38;;;;;;;3.47;2.38;;;4.70;99.90;;;;;;4938428;29;20497;-83
2022/09/21 06:00:21;;;;;;;9.95;2.75;;;4.70;99.90;;;;;;4938436;29;20040;-82
2022/09/21 06:03:08;;;;;;;4.13;2.25;;;4.70;99.90;;;;;;4921739;29;20051;-81
2022/09/21 06:05:34;;;;;;;3.47;1.85;;;4.70;99.90;;;;;;4938044;29;20053;-83
2022/09/21 06:08:00;;;;;;;5.35;2.67;;;4.70;99.90;;;;;;4937043;29;20043;-76
2022/09/21 06:10:31;;;;;;;5.25;2.70;;;4.70;99.90;;;;;;4938035;29;20507;-81
2022/09/21 06:12:56;;;;;;;3.65;2.00;;;5.40;99.90;;;;;;4938054;29;20040;-78
2022/09/21 06:15:22;;;;;;;4.53;2.40;;;4.70;99.90;;;;;;4937857;29;20055;-77
2022/09/21 06:17:47;;;;;;;3.33;2.45;;;4.70;99.90;;;;;;4937764;29;20559;-82
2022/09/21 06:20:13;;;;;;;4.35;2.55;;;5.40;99.90;;;;;;4937949;29;20090;-79
2022/09/21 06:22:39;;;;;;;5.65;2.45;;;4.80;99.90;;;;;;4937819;29;20091;-80
2022/09/21 06:25:05;;;;;;;3.58;2.42;;;5.20;99.90;;;;;;4937728;29;20043;-79
2022/09/21 06:27:30;;;;;;;4.47;2.93;;;4.90;99.90;;;;;;4937303;29;20107;-80
2022/09/21 06:29:56;;;;;;;4.68;2.50;;;4.90;99.90;;;;;;4936415;29;20047;-81
2022/09/21 06:32:21;;;;;;;4.75;3.35;;;5.00;99.90;;;;;;4937619;29;20068;-84
2022/09/21 06:34:48;;;;;;;4.18;2.58;;;5.00;99.90;;;;;;4920908;29;20087;-79
2022/09/21 06:37:14;;;;;;;6.07;2.55;;;5.10;99.90;;;;;;4920928;29;20135;-81
2022/09/21 06:39:40;;;;;;;4.95;2.92;;;5.10;99.90;;;;;;4937251;29;20143;-89
2022/09/21 06:42:05;;;;;;;4.75;3.00;;;5.20;99.90;;;;;;4921030;29;20436;-81
2022/09/21 06:44:31;;;;;;;5.10;3.10;;;5.30;99.90;;;;;;4936745;29;20047;-81
2022/09/21 06:46:57;;;;;;;4.50;3.47;;;5.40;99.90;;;;;;4937396;29;20472;-81
2022/09/21 06:49:22;;;;;;;6.53;3.70;;;5.50;99.90;;;;;;4936429;29;20090;-79
2022/09/21 06:51:48;;;;;;;7.50;3.60;;;5.60;99.90;;;;;;4936684;29;20036;-79
2022/09/21 06:54:14;;;;;;;5.43;3.58;;;5.80;99.90;;;;;;4920565;29;20055;-82
2022/09/21 06:56:42;;;;;;;5.88;4.13;;;6.20;99.90;;;;;;4937512;29;20051;-78
2022/09/21 06:59:07;;;;;;;5.68;3.75;;;6.10;99.90;;;;;;4937198;29;20048;-84
2022/09/21 07:01:33;;;;;;;6.70;4.13;;;6.30;99.90;;;;;;4936251;29;20100;-84
2022/09/21 07:03:59;;;;;;;6.72;3.75;;;6.50;99.90;;;;;;4937842;29;20134;-83
2022/09/21 07:06:25;;;;;;;5.30;3.55;;;6.60;99.90;;;;;;4935977;29;20039;-82
2022/09/21 07:08:52;;;;;;;8.57;4.47;;;6.80;99.90;;;;;;4937093;29;20047;-79
2022/09/21 07:11:18;;;;;;;6.38;4.03;;;7.00;99.90;;;;;;4937351;29;20051;-81
2022/09/21 07:13:44;;;;;;;6.15;4.50;;;7.20;99.90;;;;;;4936947;29;20050;-82
2022/09/21 07:16:11;;;;;;;9.45;4.43;;;7.30;99.90;;;;;;4936893;29;20048;-83
2022/09/21 07:18:39;;;;;;;9.32;4.45;;;7.50;99.90;;;;;;4935869;29;20039;-81
2022/09/21 07:21:07;;;;;;;9.02;5.22;;;7.70;99.90;;;;;;4920087;29;20500;-82
2022/09/21 07:23:33;;;;;;;5.50;4.13;;;7.90;99.90;;;;;;4935325;29;20381;-84
2022/09/21 07:26:05;;;;;;;8.27;4.13;;;8.00;99.90;;;;;;4936784;29;20055;-83
2022/09/21 07:28:31;;;;;;;6.47;4.05;;;8.20;99.90;;;;;;4935178;29;20444;-83
2022/09/21 07:30:58;;;;;;;6.65;3.75;;;8.40;99.90;;;;;;4936419;29;20488;-79
2022/09/21 07:33:24;;;;;;;11.07;4.25;;;8.50;99.90;;;;;;4935338;29;20484;-79
2022/09/21 07:35:55;;;;;;;4.93;3.90;;;8.70;99.90;;;;;;4935717;29;20079;-81
2022/09/21 07:38:22;;;;;;;8.82;4.35;;;8.90;99.90;;;;;;4935028;29;20087;-82
2022/09/21 07:40:48;;;;;;;5.32;3.28;;;9.00;99.90;;;;;;4936453;29;20123;-85
2022/09/21 07:43:14;;;;;;;5.80;3.10;;;9.20;99.90;;;;;;4936705;29;20127;-78
2022/09/21 07:45:41;;;;;;;5.83;3.20;;;9.40;99.90;;;;;;4936581;29;20054;-81
2022/09/21 07:48:10;;;;;;;7.40;3.37;;;9.50;99.90;;;;;;4936666;29;20130;-79
2022/09/21 07:50:35;;;;;;;6.40;3.63;;;9.70;99.90;;;;;;4936347;29;20044;-84
2022/09/21 07:53:02;;;;;;;11.15;3.78;;;9.80;99.90;;;;;;4935595;29;20061;-82
2022/09/21 07:55:28;;;;;;;8.45;4.45;;;10.00;99.90;;;;;;4936644;29;20592;-84
2022/09/21 08:00:38;;;;;;;5.70;3.65;;;10.30;99.90;;;;;;4936545;29;20051;-77
2022/09/21 08:03:04;;;;;;;7.55;4.43;;;10.40;99.90;;;;;;4936435;29;20043;-81
2022/09/21 08:05:31;;;;;;;7.43;4.20;;;10.50;99.90;;;;;;4936447;29;20123;-79
2022/09/21 08:07:57;;;;;;;8.45;3.45;;;10.70;99.90;;;;;;4936325;29;20043;-82
2022/09/21 08:10:27;;;;;;;8.07;3.65;;;10.80;99.90;;;;;;4936585;29;20048;-81
2022/09/21 08:12:53;;;;;;;10.23;3.13;;;10.90;99.90;;;;;;4936254;29;20142;-80
2022/09/21 08:15:19;;;;;;;7.43;3.03;;;11.00;99.90;;;;;;4936000;29;20492;-81
2022/09/21 08:17:44;;;;;;;7.00;3.38;;;11.20;99.90;;;;;;4935239;29;20044;-80
2022/09/21 08:20:10;;;;;;;9.75;3.53;;;11.30;99.90;;;;;;4936260;29;20050;-80
2022/09/21 08:22:36;;;;;;;7.18;3.47;;;11.40;99.90;;;;;;4935930;29;20047;-79
2022/09/21 08:25:03;;;;;;;6.82;3.65;;;11.50;99.90;;;;;;4934677;29;20055;-81
2022/09/21 08:27:32;;;;;;;8.10;4.60;;;11.60;99.90;;;;;;4936138;29;20118;-84
2022/09/21 08:29:57;;;;;;;9.57;4.80;;;11.70;99.90;;;;;;4919077;29;20099;-82
2022/09/21 08:32:23;;;;;;;7.93;3.95;;;11.80;99.90;;;;;;4934960;29;20055;-79
2022/09/21 08:34:49;;;;;;;10.13;3.50;;;12.00;99.90;;;;;;4939282;29;20082;-76
2022/09/21 08:37:15;;;;;;;8.75;2.92;;;12.30;99.90;;;;;;4939679;29;20040;-80
2022/09/21 08:39:40;;;;;;;10.32;3.50;;;12.20;99.90;;;;;;4939256;29;20056;-82
2022/09/21 08:42:09;;;;;;;6.40;2.60;;;12.30;99.90;;;;;;4939398;29;20487;-81
2022/09/21 08:44:54;;;;;;;10.27;2.55;;;12.40;99.90;;;;;;4939683;29;20492;-85
2022/09/21 08:47:47;;;;;;;8.25;2.42;;;12.50;99.90;;;;;;4939652;29;20040;-84
2022/09/21 08:50:38;;;;;;;9.15;2.22;;;12.60;99.90;;;;;;4922650;29;20047;-81
2022/09/21 08:53:09;;;;;;;7.60;2.30;;;12.70;99.90;;;;;;4939954;29;20086;-81
2022/09/21 08:55:35;;;;;;;7.22;2.30;;;13.00;99.90;;;;;;4939471;29;20395;-80
2022/09/21 08:58:00;;;;;;;9.18;1.90;;;12.90;99.90;;;;;;4939375;29;20043;-78
2022/09/21 09:00:28;;;;;;;7.65;2.20;;;13.00;99.90;;;;;;4938025;29;20472;-79
2022/09/21 09:02:53;;;;;;;7.45;1.98;;;13.10;99.90;;;;;;4938913;29;20060;-79
2022/09/21 09:05:46;;;;;;;6.22;2.00;;;13.10;99.90;;;;;;4938326;29;20500;-82
2022/09/21 09:08:12;;;;;;;7.15;2.10;;;13.20;99.90;;;;;;4939014;29;20487;-79
2022/09/21 09:10:44;;;;;;;7.20;2.33;;;13.30;99.90;;;;;;4939185;29;20047;-79
2022/09/21 09:13:21;;;;;;;8.40;2.17;;;13.40;99.90;;;;;;4939139;29;20135;-79
2022/09/21 09:15:52;;;;;;;;;;;13.50;99.90;;;;;;4939531;29;20392;-79
2022/09/21 09:18:56;;;;;;;8.25;2.13;;;13.60;99.90;;;;;;4939049;29;19922;-78
2022/09/21 09:21:33;;;;;;;9.48;2.33;;;13.60;99.90;;;;;;4906144;29;20055;-79
2022/09/21 09:24:12;;;;;;;6.57;2.20;;;13.70;99.90;;;;;;4939498;29;20066;-79
2022/09/21 09:27:03;;;;;;;8.55;2.20;;;13.80;99.90;;;;;;4939434;29;20182;-79
2022/09/21 09:29:37;;;;;;;9.38;2.80;;;13.90;99.90;;;;;;4939014;29;20051;-80
2022/09/21 09:32:08;;;;;;;7.45;2.70;;;14.00;99.90;;;;;;4938418;29;20492;-80
2022/09/21 09:34:39;;;;;;;8.52;2.45;;;14.10;99.90;;;;;;4938826;29;20051;-80
2022/09/21 09:37:16;;;;;;;8.43;2.60;;;14.20;99.90;;;;;;4954550;29;20047;-80
2022/09/21 09:39:48;;;;;;;7.88;2.92;;;14.60;99.90;;;;;;4956017;29;20063;-79
2022/09/21 09:42:32;;;;;;;3.83;1.90;;;14.20;99.90;;;;;;4956869;29;20451;-81
2022/09/21 09:45:21;;;;;;;5.70;2.00;;;14.20;99.90;;;;;;4957187;28;20043;-83
2022/09/21 09:48:25;;;;;;;7.28;2.00;;;14.30;99.90;;;;;;4957446;29;20074;-79
2022/09/21 09:50:51;;;;;;;5.28;1.42;;;14.30;99.90;;;;;;4945830;28;20054;-80
2022/09/21 09:53:20;;;;;;;5.70;1.70;;;14.50;99.90;;;;;;4956984;29;20392;-81
2022/09/21 09:55:49;;;;;;;5.25;1.73;;;14.40;99.90;;;;;;4954544;28;20439;-80
2022/09/21 09:58:20;;;;;;;6.35;1.77;;;14.40;99.90;;;;;;4955202;29;20070;-82
2022/09/21 10:00:52;;;;;;;4.93;1.63;;;14.50;99.90;;;;;;4955673;29;20051;-78
2022/09/21 10:03:25;;;;;;;4.53;1.48;;;14.60;99.90;;;;;;4955711;28;20051;-80
2022/09/21 10:05:51;;;;;;;6.45;1.90;;;14.70;99.90;;;;;;4956842;28;20047;-78
2022/09/21 10:08:35;;;;;;;5.82;1.52;;;14.80;99.90;;;;;;4956833;28;20538;-79
2022/09/21 10:11:01;;;;;;;6.70;1.52;;;14.90;99.90;;;;;;4957257;29;20055;-79
2022/09/21 10:13:31;;;;;;;7.80;1.70;;;15.10;99.90;;;;;;4956914;28;20403;-82
2022/09/21 10:15:58;;;;;;;7.47;1.70;;;15.10;99.90;;;;;;4956931;28;20130;-81
2022/09/21 10:18:38;;;;;;;5.88;1.70;;;15.40;99.90;;;;;;4956990;28;20105;-79
2022/09/21 10:21:07;;;;;;;6.72;1.67;;;15.50;99.90;;;;;;4957093;28;20054;-77
2022/09/21 10:23:34;;;;;;;7.10;2.15;;;15.80;99.90;;;;;;4956923;29;20124;-82
2022/09/21 10:26:08;;;;;;;5.35;2.03;;;15.90;99.90;;;;;;4957022;28;20047;-79
2022/09/21 10:28:34;;;;;;;10.32;1.73;;;16.00;99.90;;;;;;4956906;28;20147;-79
2022/09/21 10:31:20;;;;;;;5.57;1.60;;;16.10;99.90;;;;;;4956877;28;20043;-82
2022/09/21 10:34:04;;;;;;;7.25;1.55;;;16.30;99.90;;;;;;4956940;28;20054;-81
2022/09/21 10:36:31;;;;;;;6.22;1.40;;;16.30;99.90;;;;;;4956519;28;20499;-80
2022/09/21 10:39:19;;;;;;;5.55;1.48;;;16.50;99.90;;;;;;4956679;28;20059;-81
2022/09/21 10:42:05;;;;;;;6.55;1.30;;;16.40;99.90;;;;;;4956794;29;20059;-82
2022/09/21 10:44:39;;;;;;;4.38;1.40;;;16.40;99.90;;;;;;4956581;28;20051;-80
2022/09/21 10:47:35;;;;;;;4.45;1.20;;;16.50;99.90;;;;;;4956583;28;20043;-79
2022/09/21 10:50:25;;;;;;;3.60;0.90;;;16.50;99.90;;;;;;4957135;28;20059;-79
2022/09/21 10:52:57;;;;;;;3.03;1.10;;;16.50;99.90;;;;;;4956325;28;20506;-82
2022/09/21 10:55:24;;;;;;;6.97;1.40;;;16.50;99.90;;;;;;4955374;29;20043;-79
2022/09/21 10:57:50;;;;;;;;;;;16.60;99.90;;;;;;4955752;28;20506;-78
2022/09/21 11:00:28;;;;;;;5.95;1.60;;;16.50;99.90;;;;;;4956706;29;19922;-81
2022/09/21 11:02:54;;;;;;;;;;;16.50;99.90;;;;;;4957145;28;20071;-77
2022/09/21 11:05:28;;;;;;;5.18;1.23;;;16.70;99.90;;;;;;4956285;29;19922;-78
2022/09/21 11:08:14;;;;;;;5.35;1.42;;;16.70;99.90;;;;;;4955175;29;20055;-83
2022/09/21 11:10:47;;;;;;;5.00;1.75;;;16.90;99.90;;;;;;4956122;29;20051;-80
2022/09/21 11:13:30;;;;;;;4.65;1.13;;;17.10;99.90;;;;;;4956523;28;20051;-80
2022/09/21 11:16:09;;;;;;;6.03;0.90;;;17.20;99.90;;;;;;4956127;28;20098;-82
2022/09/21 11:19:03;;;;;;;5.00;1.30;;;17.10;99.90;;;;;;4956008;28;20039;-80
2022/09/21 11:22:02;;;;;;;6.05;1.45;;;17.30;99.90;;;;;;4956070;28;20110;-81
2022/09/21 11:25:06;;;;;;;3.47;1.00;;;17.50;99.90;;;;;;4955964;28;20070;-83
2022/09/21 11:27:43;;;;;;;4.10;0.90;;;17.60;99.90;;;;;;4955835;28;20055;-77
2022/09/21 11:30:14;;;;;;;2.45;0.90;;;17.70;99.90;;;;;;4956244;28;20051;-80
2022/09/21 11:33:05;;;;;;;3.75;1.02;;;17.80;99.90;;;;;;4955562;28;20051;-79
2022/09/21 11:35:49;;;;;;;4.85;1.10;;;17.90;99.90;;;;;;4955670;28;20051;-82
2022/09/21 11:38:52;;;;;;;4.30;1.00;;;18.00;99.90;;;;;;4955775;29;20137;-81
2022/09/21 11:41:51;;;;;;;4.55;1.48;;;18.00;99.90;;;;;;4955748;28;20051;-79
2022/09/21 11:44:22;;;;;;;4.70;1.10;;;18.10;99.90;;;;;;4955646;29;20047;-81
2022/09/21 11:47:21;;;;;;;5.72;1.45;;;18.20;99.90;;;;;;4955769;29;20050;-79
2022/09/21 11:50:07;;;;;;;5.07;1.20;;;18.20;99.90;;;;;;4955747;28;20059;-78
2022/09/21 11:52:32;;;;;;;6.00;1.10;;;18.20;99.90;;;;;;4955574;29;20047;-79
2022/09/21 11:55:06;;;;;;;3.63;1.00;;;18.30;99.90;;;;;;4955619;29;20123;-79
2022/09/21 11:57:49;;;;;;;5.90;1.20;;;18.10;99.90;;;;;;4955958;28;20051;-78
2022/09/21 12:00:18;;;;;;;3.40;0.90;;;18.10;99.90;;;;;;4955453;29;20048;-80
2022/09/21 12:03:34;;;;;;;3.95;0.90;;;18.10;99.90;;;;;;4955383;28;20069;-79
2022/09/21 12:06:31;;;;;;;5.53;1.10;;;18.20;99.90;;;;;;4954868;28;20055;-80
2022/09/21 12:09:22;;;;;;;5.05;1.42;;;18.20;99.90;;;;;;4958170;28;20530;-79
2022/09/21 12:12:03;;;;;;;6.13;1.00;;;18.30;99.90;;;;;;4959750;29;20047;-78
2022/09/21 12:14:37;;;;;;;3.13;0.90;;;18.20;99.90;;;;;;4959529;28;20094;-76
2022/09/21 12:17:37;;;;;;;5.45;1.10;;;18.20;99.90;;;;;;4959172;28;20058;-77
2022/09/21 12:20:12;;;;;;;5.38;1.10;;;18.10;99.90;;;;;;4957973;28;20447;-77
2022/09/21 12:22:45;;;;;;;4.63;0.90;;;18.00;99.90;;;;;;4959209;29;20047;-80
2022/09/21 12:25:18;;;;;;;3.15;1.00;;;17.90;99.90;;;;;;4959275;28;20043;-82
2022/09/21 12:28:22;;;;;;;3.20;0.80;;;18.00;99.90;;;;;;4959121;29;20039;-82
2022/09/21 12:30:54;;;;;;;3.85;1.00;;;17.90;98.90;;;;;;4959245;28;20085;-77
2022/09/21 12:33:39;;;;;;;4.15;1.17;;;17.80;99.70;;;;;;4959154;28;20047;-77
2022/09/21 12:36:26;;;;;;;4.20;0.90;;;17.80;99.70;;;;;;4959013;28;20055;-78
2022/09/21 12:39:00;;;;;;;3.53;0.88;;;17.90;99.90;;;;;;4959211;28;20067;-81
2022/09/21 12:41:46;;;;;;;5.55;1.00;;;18.00;99.90;;;;;;4959321;28;20062;-79
2022/09/21 12:44:16;;;;;;;3.35;0.90;;;18.00;99.90;;;;;;4958824;28;20518;-77
2022/09/21 12:47:08;;;;;;;4.10;1.20;;;18.20;99.90;;;;;;4958689;29;20057;-78
2022/09/21 12:49:41;;;;;;;3.80;0.60;;;18.30;99.90;;;;;;4958747;28;20062;-81
2022/09/21 12:52:06;;;;;;;2.80;0.90;;;18.40;99.90;;;;;;4957794;28;20110;-80
2022/09/21 12:54:45;;;;;;;4.63;0.90;;;18.30;98.80;;;;;;4958823;28;20043;-80
2022/09/21 12:57:42;;;;;;;3.40;1.10;;;18.20;98.40;;;;;;4958515;28;20055;-80
2022/09/21 13:00:16;;;;;;;3.08;0.93;;;18.30;99.30;;;;;;4959178;28;20090;-81
2022/09/21 13:02:45;;;;;;;2.75;0.98;;;18.30;98.80;;;;;;4958465;28;20106;-76
2022/09/21 13:05:16;;;;;;;3.08;0.82;;;18.30;99.00;;;;;;4958396;29;20231;-82
2022/09/21 13:08:11;;;;;;;3.53;0.90;;;18.40;98.90;;;;;;4958320;29;20051;-77
2022/09/21 13:10:54;;;;;;;2.33;1.00;;;18.40;98.00;;;;;;4958180;28;20506;-80
2022/09/21 13:13:33;;;;;;;4.45;1.70;;;18.20;97.40;;;;;;4958266;28;20495;-79
2022/09/21 13:16:00;;;;;;;3.38;0.98;;;18.20;98.10;;;;;;4958170;28;20047;-76
2022/09/21 13:18:27;;;;;;;;;;;18.20;98.70;;;;;;4958958;28;20040;-79
2022/09/21 13:20:54;;;;;;;4.78;0.90;;;18.20;98.70;;;;;;4957193;28;19922;-77
2022/09/21 13:23:39;;;;;;;2.92;0.77;;;18.20;98.90;;;;;;4958376;28;20070;-79
2022/09/21 13:26:08;;;;;;;9.05;1.27;;;18.10;97.40;;;;;;4958080;28;20078;-78